• Join FlightAware (Why Join?)
  • Login
  • US Flag 
08:26PM EDT


 

Airport Tracker/Info


-or-


 

Live Flight TrackerFlight Track Log ✈ N724AE ✈ 10-Apr-2013 ✈ KDFW - KSGF

Flight Track Log - Related Links

Times and Time Zones

All times are in EDT time to prevent confusion due to time zone crossing. See the N724AE flight status page for this flight to view local times or setup timezone preferences in your user account.

Time Position Orientation Groundspeed Altitude Reporting Facility
EDT Latitude Longitude Course Direction KTS MPH feet Rate Location/Type
10:11AM 32.9333 -97.0667 356° North 172 198 2,900  Level Dallas / Fort Worth TRACON
10:12AM 33.0439 -97.0961 347° North 229 264 6,400 1,800 Climbing Fort Worth Center
10:13AM 32.8703 -96.8000 North  Level FlightAware Approximate
10:13AM 33.1128 -97.0811 10° North 278 320 8,100  Level Fort Worth Center
10:14AM 32.9966 -96.8000 North  Level FlightAware Approximate
10:14AM 33.1939 -97.0186 33° Northeast 301 346 10,300  Level Fort Worth Center
10:15AM 33.1227 -96.8047 356° North  Level FlightAware Approximate
10:15AM 33.2708 -96.9614 32° Northeast 340 391 11,200  Level Fort Worth Center
10:16AM 33.2487 -96.8152 356° North  Level FlightAware Approximate
10:16AM 33.3750 -96.8836 32° Northeast 386 444 13,200  Level Fort Worth Center
10:17AM 33.4603 -96.8183 33° Northeast 392 451 14,300 1,080 Climbing Fort Worth Center
10:18AM 33.5747 -96.7453 28° Northeast 413 475 15,400 1,080 Climbing Fort Worth Center
10:19AM 33.6725 -96.6747 31° Northeast 435 501 16,500 1,140 Climbing Fort Worth Center
10:20AM 33.7886 -96.5861 32° Northeast 448 516 17,700 1,500 Climbing Fort Worth Center
10:21AM 33.8906 -96.5278 25° Northeast 446 513 19,500 1,560 Climbing Fort Worth Center
10:22AM 34.0094 -96.5114 North 429 494 20,900 1,380 Climbing Fort Worth Center
10:23AM 34.1342 -96.4550 21° North 432 497 22,300 1,380 Climbing Fort Worth Center
10:24AM 34.2569 -96.4183 14° North 438 504 23,800 1,500 Climbing Fort Worth Center
10:25AM 34.3819 -96.3894 11° North 443 510 25,300 1,440 Climbing Fort Worth Center
10:26AM 34.5028 -96.3553 13° North 449 517 26,700 1,320 Climbing Fort Worth Center
10:27AM 34.6106 -96.2781 31° Northeast 442 509 28,000 1,320 Climbing Fort Worth Center
10:28AM 34.7036 -96.1808 41° Northeast 437 503 29,400 1,260 Climbing Fort Worth Center
10:29AM 34.7964 -96.0811 41° Northeast 437 503 30,600 1,320 Climbing Fort Worth Center
10:30AM 34.8872 -95.9833 41° Northeast 437 503 32,100 1,440 Climbing Fort Worth Center
10:31AM 34.9778 -95.8856 41° Northeast 437 503 33,500 1,200 Climbing Fort Worth Center
10:32AM 35.0622 -95.8028 39° Northeast 436 502 34,500 960 Climbing Fort Worth Center
10:33AM 35.1547 -95.7047 41° Northeast 436 502 35,500 1,020 Climbing Fort Worth Center
10:34AM 35.2472 -95.6036 42° Northeast 431 496 36,600 720 Climbing Fort Worth Center
10:35AM 35.3417 -95.5050 40° Northeast 431 496 37,000 180 Climbing Fort Worth Center
10:36AM 35.4381 -95.3983 42° Northeast 446 513 37,000  Level Fort Worth Center
10:37AM 35.5003 -95.3375 39° Northeast 462 532 37,000  Level Memphis Center
10:38AM 35.5942 -95.2308 43° Northeast 469 540 37,000  Level Memphis Center
10:39AM 35.6922 -95.1242 41° Northeast 469 540 37,000  Level Memphis Center
10:40AM 35.7900 -95.0172 42° Northeast 469 540 37,000  Level Memphis Center
10:41AM 35.8775 -94.9069 46° Northeast 457 526 37,000  Level Memphis Center
10:42AM 35.9589 -94.7883 50° Northeast 446 513 37,000  Level Memphis Center
10:43AM 36.0344 -94.6589 54° Northeast 446 513 37,000 -120 Level Memphis Center
10:44AM 36.0622 -94.5114 77° East 431 496 36,800 -600 Descending Memphis Center
10:45AM 36.0633 -94.3575 89° East 431 496 35,900 -1,560 Descending Memphis Center
10:46AM 36.0597 -94.2058 92° East 431 496 33,700 -2,640 Descending Memphis Center
10:47AM 36.0581 -94.0567 91° East 436 502 30,700 -3,000 Descending Memphis Center
10:48AM 36.0978 -93.9069 72° East 443 510 27,800 -3,060 Descending Memphis Center
10:49AM 36.1433 -93.7675 68° East 443 510 24,600 -2,640 Descending Memphis Center
10:50AM 36.1889 -93.6256 68° East 443 510 22,600 -2,940 Descending Memphis Center
10:51AM 36.2342 -93.4833 68° East 438 504 18,800 -3,000 Descending Memphis Center
10:52AM 36.2772 -93.3458 69° East 433 498 16,600 -1,500 Descending Memphis Center
10:53AM 36.3528 -93.2378 49° Northeast 413 475 15,800 -1,140 Descending Memphis Center
10:54AM 36.4858 -93.2425 358° North 376 433 14,400 -900 Descending Memphis Center
10:56AM 36.6778 -93.2897 349° North 408 470 13,300 -1,020 Descending Kansas City Center
10:57AM 36.7722 -93.3247 343° North 363 418 11,600 -1,740 Descending Kansas City Center
10:58AM 36.8700 -93.3675 341° North 337 388 9,900 -1,920 Descending Kansas City Center
10:59AM 36.9489 -93.4053 339° North 317 365 7,800 -2,100 Descending Kansas City Center